createdAt,value
2019-02-02T00:01:28.455Z,27.50
2019-02-02T00:06:57.740Z,29.23
2019-02-02T00:12:27.024Z,30.50
2019-02-02T00:17:57.305Z,28.10
2019-02-02T00:23:26.576Z,31.37
2019-02-02T00:28:55.911Z,27.50
2019-02-02T00:34:25.182Z,27.97
2019-02-02T00:39:54.450Z,29.70
2019-02-02T00:45:24.102Z,28.90
2019-02-02T00:50:53.443Z,24.53
2019-02-02T00:56:22.724Z,22.03
2019-02-02T01:01:52.069Z,31.83
2019-02-02T01:07:23.109Z,25.97
2019-02-02T01:12:52.567Z,25.57
2019-02-02T01:18:21.801Z,25.33
2019-02-02T01:23:51.090Z,26.50
2019-02-02T01:29:20.360Z,29.07
2019-02-02T01:34:49.634Z,28.40
2019-02-02T01:40:27.876Z,30.70
2019-02-02T01:45:57.589Z,23.90
2019-02-02T01:51:26.850Z,29.87
2019-02-02T01:56:56.129Z,27.20
2019-02-02T02:02:25.426Z,36.27
2019-02-02T02:07:55.000Z,28.13
2019-02-02T02:13:24.340Z,34.50
2019-02-02T02:18:53.688Z,27.60
2019-02-02T02:24:23.031Z,29.93
2019-02-02T02:29:52.410Z,27.33
2019-02-02T02:35:21.814Z,26.70
2019-02-02T02:40:51.092Z,25.73
2019-02-02T02:46:20.397Z,23.50
2019-02-02T02:51:49.661Z,23.90
2019-02-02T02:57:18.935Z,22.77
2019-02-02T03:02:48.271Z,25.23
2019-02-02T03:08:17.615Z,29.27
2019-02-02T03:13:46.895Z,25.43
2019-02-02T03:19:16.185Z,23.10
2019-02-02T03:24:45.455Z,20.27
2019-02-02T03:30:18.595Z,22.53
2019-02-02T03:35:47.847Z,22.40
2019-02-02T03:41:17.121Z,19.60
2019-02-02T03:46:46.409Z,25.33
2019-02-02T03:52:15.699Z,27.60
2019-02-02T03:57:45.052Z,31.00
2019-02-02T04:03:14.557Z,24.87
2019-02-02T04:08:43.895Z,22.50
2019-02-02T04:14:13.172Z,21.93
2019-02-02T04:19:42.445Z,26.30
2019-02-02T04:25:12.083Z,23.67
2019-02-02T04:30:41.348Z,23.23
2019-02-02T04:36:10.627Z,19.90
2019-02-02T04:41:39.898Z,16.03
2019-02-02T04:47:09.163Z,20.53
2019-02-02T04:52:38.506Z,22.00
2019-02-02T04:58:07.786Z,21.67
2019-02-02T05:03:37.061Z,19.90
2019-02-02T05:09:08.470Z,22.87
2019-02-02T05:14:37.762Z,17.40
2019-02-02T05:20:14.499Z,23.80
2019-02-02T05:25:43.770Z,15.83
2019-02-02T05:31:32.478Z,21.63
2019-02-02T05:37:01.771Z,19.70
2019-02-02T05:42:31.043Z,20.90
2019-02-02T05:48:00.389Z,20.90
2019-02-02T05:53:29.660Z,19.90
2019-02-02T05:58:59.091Z,23.47
2019-02-02T06:04:28.341Z,20.80
2019-02-02T06:09:57.612Z,19.73
2019-02-02T06:15:28.751Z,21.20
2019-02-02T06:20:58.099Z,19.60
2019-02-02T06:26:27.366Z,23.13
2019-02-02T06:31:56.759Z,26.30
2019-02-02T06:37:26.034Z,21.03
2019-02-02T06:42:55.310Z,20.97
2019-02-02T06:48:24.593Z,24.83
2019-02-02T06:53:53.856Z,22.20
2019-02-02T06:59:23.142Z,19.57
2019-02-02T07:04:52.408Z,20.77
2019-02-02T07:10:28.290Z,18.70
2019-02-02T07:15:57.633Z,20.67
2019-02-02T07:21:26.910Z,31.07
2019-02-02T07:26:56.204Z,20.17
2019-02-02T07:32:25.452Z,23.17
2019-02-02T07:37:54.729Z,28.90
2019-02-02T07:43:23.985Z,22.77
2019-02-02T07:48:53.330Z,25.83
2019-02-02T07:54:25.919Z,23.50
2019-02-02T08:00:01.159Z,21.47
2019-02-02T08:05:30.501Z,25.33
2019-02-02T08:10:59.775Z,19.40
2019-02-02T08:16:29.054Z,17.07
2019-02-02T08:21:58.323Z,17.20
2019-02-02T08:27:27.662Z,15.03
2019-02-02T08:32:57.179Z,22.33
2019-02-02T08:38:26.461Z,14.83
2019-02-02T08:43:55.744Z,16.90
2019-02-02T08:49:25.051Z,8.77
2019-02-02T08:54:54.311Z,9.20
2019-02-02T09:00:23.621Z,5.93
2019-02-02T09:05:52.910Z,7.20
2019-02-02T09:11:22.199Z,8.33
2019-02-02T09:16:51.483Z,12.37
2019-02-02T09:22:20.743Z,13.13
2019-02-02T09:27:50.090Z,19.40
2019-02-02T09:33:19.433Z,12.30
2019-02-02T09:38:49.653Z,4.67
2019-02-02T09:44:18.957Z,7.03
2019-02-02T09:49:48.225Z,4.20
2019-02-02T09:55:20.591Z,3.53
2019-02-02T10:00:54.553Z,3.90
2019-02-02T10:06:27.101Z,2.80
2019-02-02T10:11:56.836Z,4.77
2019-02-02T10:17:27.990Z,3.77
2019-02-02T10:23:00.444Z,4.57
2019-02-02T10:28:30.148Z,2.60
2019-02-02T10:34:01.218Z,2.80
2019-02-02T10:39:36.578Z,4.80
2019-02-02T10:45:13.619Z,5.13
2019-02-02T10:50:43.198Z,5.07
2019-02-02T10:56:14.451Z,4.27
2019-02-02T11:01:50.851Z,3.73
2019-02-02T11:07:15.128Z,3.83
2019-02-02T11:12:44.470Z,7.83
2019-02-02T11:18:13.717Z,3.30
2019-02-02T11:23:42.985Z,5.13
2019-02-02T11:29:12.604Z,6.10
2019-02-02T11:34:42.845Z,4.80
2019-02-02T11:40:20.042Z,4.17
2019-02-02T11:45:49.342Z,11.00
2019-02-02T11:51:18.622Z,5.50
2019-02-02T11:56:47.893Z,8.50
2019-02-02T12:02:17.156Z,5.57
2019-02-02T12:07:46.621Z,9.20
2019-02-02T12:13:15.919Z,6.10
2019-02-02T12:18:46.455Z,6.67
2019-02-02T12:24:17.893Z,5.87
2019-02-02T12:29:48.221Z,2.83
2019-02-02T12:35:20.925Z,5.50
2019-02-02T12:40:51.332Z,4.80
2019-02-02T12:46:23.225Z,4.10
2019-02-02T12:51:52.589Z,3.57
2019-02-02T12:57:22.144Z,4.80
2019-02-02T13:02:51.693Z,6.40
2019-02-02T13:08:21.191Z,6.73
2019-02-02T13:13:50.633Z,3.43
2019-02-02T13:19:20.217Z,3.73
2019-02-02T13:24:49.640Z,6.20
2019-02-02T13:30:32.000Z,5.97
2019-02-02T13:36:01.421Z,4.60
2019-02-02T13:41:31.763Z,8.20
2019-02-02T13:47:01.183Z,6.43
2019-02-02T13:52:30.884Z,4.33
2019-02-02T13:58:00.498Z,6.37
2019-02-02T14:03:33.169Z,5.90
2019-02-02T14:09:02.554Z,10.30
2019-02-02T14:14:31.922Z,6.70
2019-02-02T14:20:01.334Z,4.23
2019-02-02T14:25:30.815Z,4.10
2019-02-02T14:31:00.168Z,4.80
2019-02-02T14:36:29.493Z,9.23
2019-02-02T14:41:58.930Z,6.87
2019-02-02T14:47:28.233Z,5.10
2019-02-02T14:52:57.819Z,5.47
2019-02-02T14:58:27.474Z,3.70
2019-02-02T15:03:57.025Z,6.50
2019-02-02T15:09:26.649Z,8.53
2019-02-02T15:14:56.259Z,6.40
2019-02-02T15:20:30.238Z,10.87
2019-02-02T15:25:59.560Z,11.23
2019-02-02T15:31:29.049Z,9.70
2019-02-02T15:36:58.597Z,8.57
2019-02-02T15:42:28.015Z,8.23
2019-02-02T15:47:57.590Z,11.07
2019-02-02T15:53:26.981Z,10.10
2019-02-02T15:58:56.465Z,8.50
2019-02-02T16:04:26.310Z,8.43
2019-02-02T16:09:55.719Z,8.50
2019-02-02T16:15:25.242Z,14.03
2019-02-02T16:20:54.622Z,11.20
2019-02-02T16:26:24.093Z,8.60
2019-02-02T16:31:53.719Z,9.30
2019-02-02T16:37:23.196Z,9.60
2019-02-02T16:42:53.812Z,10.93
2019-02-02T16:48:23.630Z,9.87
2019-02-02T16:53:53.026Z,9.63
2019-02-02T16:59:22.470Z,10.43
2019-02-02T17:04:55.215Z,12.07
2019-02-02T17:10:31.170Z,13.30
2019-02-02T17:16:00.957Z,15.17
2019-02-02T17:21:30.777Z,16.90
2019-02-02T17:27:00.452Z,20.13
2019-02-02T17:32:29.982Z,16.70
2019-02-02T17:38:00.016Z,18.53
2019-02-02T17:43:29.547Z,20.27
2019-02-02T17:48:59.069Z,20.67
2019-02-02T17:54:28.547Z,28.23
2019-02-02T17:59:58.201Z,23.10
2019-02-02T18:05:27.860Z,23.40
2019-02-02T18:10:57.797Z,23.27
2019-02-02T18:16:27.321Z,22.70
2019-02-02T18:21:57.255Z,21.60
2019-02-02T18:27:27.083Z,32.63
2019-02-02T18:32:57.421Z,26.53
2019-02-02T18:38:27.499Z,22.70
2019-02-02T18:43:58.429Z,24.33
2019-02-02T18:49:29.081Z,30.40
2019-02-02T18:54:58.705Z,30.87
2019-02-02T19:00:28.433Z,34.03
2019-02-02T19:05:58.033Z,28.17
2019-02-02T19:11:27.761Z,33.17
2019-02-02T19:17:01.092Z,26.70
2019-02-02T19:22:28.426Z,31.10
2019-02-02T19:27:58.156Z,29.97
2019-02-02T19:33:46.750Z,29.60
2019-02-02T19:39:16.237Z,37.13
2019-02-02T19:44:45.593Z,46.33
2019-02-02T19:50:22.019Z,38.13
2019-02-02T19:55:52.946Z,41.17
2019-02-02T20:01:22.958Z,40.20
2019-02-02T20:06:52.223Z,39.00
2019-02-02T20:12:21.495Z,38.70
2019-02-02T20:17:50.955Z,41.00
2019-02-02T20:23:20.331Z,48.37
2019-02-02T20:28:49.584Z,48.33
2019-02-02T20:34:18.861Z,40.17
2019-02-02T20:39:48.137Z,81.90
2019-02-02T20:45:23.569Z,57.43
2019-02-02T20:50:52.914Z,57.97
2019-02-02T20:56:22.191Z,80.20
2019-02-02T21:01:51.568Z,120.37
2019-02-02T21:07:22.581Z,102.67
2019-02-02T21:12:51.865Z,89.60
2019-02-02T21:18:21.151Z,75.93
2019-02-02T21:23:54.956Z,125.40
2019-02-02T21:29:24.551Z,98.37
2019-02-02T21:34:53.835Z,107.17
2019-02-02T21:40:26.445Z,77.53
2019-02-02T21:45:55.729Z,96.87
2019-02-02T21:51:25.073Z,113.07
2019-02-02T21:56:54.404Z,98.33
2019-02-02T22:02:23.698Z,111.73
2019-02-02T22:07:54.059Z,128.60
2019-02-02T22:13:23.337Z,98.07
2019-02-02T22:18:52.633Z,98.67
2019-02-02T22:24:21.922Z,82.60
2019-02-02T22:29:51.428Z,139.47
2019-02-02T22:35:20.965Z,117.87
2019-02-02T22:40:50.243Z,140.00
2019-02-02T22:46:21.218Z,141.47
2019-02-02T22:51:53.103Z,129.97
2019-02-02T22:57:22.427Z,190.33
2019-02-02T23:02:55.725Z,112.97
2019-02-02T23:08:29.684Z,343.80
2019-02-02T23:14:29.138Z,195.07
2019-02-02T23:20:03.520Z,250.70
2019-02-02T23:25:40.624Z,264.13
2019-02-02T23:31:16.721Z,165.37
2019-02-02T23:36:51.535Z,211.53
2019-02-02T23:42:17.703Z,144.73
2019-02-02T23:48:08.052Z,116.20
2019-02-02T23:53:39.669Z,153.13
2019-02-02T23:59:08.875Z,154.10
